createdAt,value
2022-10-05T00:01:34.817Z,14.20
2022-10-05T00:04:15.428Z,14.20
2022-10-05T00:06:51.956Z,14.20
2022-10-05T00:09:22.350Z,14.20
2022-10-05T00:11:58.809Z,14.20
2022-10-05T00:14:31.297Z,14.20
2022-10-05T00:17:05.870Z,14.20
2022-10-05T00:19:38.323Z,14.20
2022-10-05T00:22:19.978Z,14.20
2022-10-05T00:24:49.835Z,14.20
2022-10-05T00:27:27.813Z,14.20
2022-10-05T00:30:00.426Z,14.20
2022-10-05T00:32:35.885Z,14.20
2022-10-05T00:35:06.239Z,14.20
2022-10-05T00:37:40.851Z,14.20
2022-10-05T00:40:21.827Z,14.20
2022-10-05T00:43:02.832Z,14.10
2022-10-05T00:45:35.022Z,14.20
2022-10-05T00:48:16.891Z,14.10
2022-10-05T00:50:56.201Z,14.10
2022-10-05T00:53:46.036Z,14.10
2022-10-05T00:56:46.145Z,14.10
2022-10-05T00:59:33.747Z,14.10
2022-10-05T01:02:14.891Z,14.10
2022-10-05T01:04:49.481Z,14.10
2022-10-05T01:07:35.912Z,14.10
2022-10-05T01:10:20.315Z,14.10
2022-10-05T01:13:04.027Z,14.10
2022-10-05T01:15:45.037Z,14.20
2022-10-05T01:18:19.520Z,14.10
2022-10-05T01:21:05.107Z,14.10
2022-10-05T01:24:21.045Z,14.20
2022-10-05T01:27:17.257Z,14.20
2022-10-05T01:29:59.889Z,14.20
2022-10-05T01:32:35.076Z,14.10
2022-10-05T01:35:18.907Z,14.10
2022-10-05T01:37:58.625Z,14.10
2022-10-05T01:40:41.887Z,14.10
2022-10-05T01:43:21.333Z,14.10
2022-10-05T01:46:07.005Z,14.00
2022-10-05T01:48:47.427Z,14.00
2022-10-05T01:51:29.886Z,14.00
2022-10-05T01:54:07.068Z,14.00
2022-10-05T01:56:59.947Z,13.90
2022-10-05T01:59:49.409Z,13.90
2022-10-05T02:02:28.986Z,13.80
2022-10-05T02:05:04.729Z,13.80
2022-10-05T02:07:47.090Z,13.80
2022-10-05T02:10:22.246Z,13.60
2022-10-05T02:13:02.921Z,13.70
2022-10-05T02:15:38.623Z,13.70
2022-10-05T02:18:21.023Z,13.70
2022-10-05T02:20:51.129Z,13.60
2022-10-05T02:23:29.925Z,13.60
2022-10-05T02:26:00.489Z,13.60
2022-10-05T02:28:41.259Z,13.60
2022-10-05T02:31:12.178Z,13.60
2022-10-05T02:33:49.150Z,13.50
2022-10-05T02:36:19.060Z,13.50
2022-10-05T02:39:09.115Z,13.50
2022-10-05T02:41:47.421Z,13.40
2022-10-05T02:44:30.991Z,13.40
2022-10-05T02:47:08.668Z,13.30
2022-10-05T02:49:52.115Z,13.30
2022-10-05T02:52:25.671Z,13.20
2022-10-05T02:55:10.131Z,13.20
2022-10-05T02:57:50.443Z,13.20
2022-10-05T03:00:27.967Z,13.10
2022-10-05T03:03:02.612Z,13.10
2022-10-05T03:05:47.139Z,13.00
2022-10-05T03:08:20.631Z,13.00
2022-10-05T03:11:07.086Z,13.00
2022-10-05T03:13:44.543Z,13.00
2022-10-05T03:16:47.273Z,12.90
2022-10-05T03:19:27.331Z,12.90
2022-10-05T03:22:09.191Z,12.90
2022-10-05T03:24:50.395Z,12.90
2022-10-05T03:27:41.002Z,12.90
2022-10-05T03:30:14.538Z,12.90
2022-10-05T03:32:59.096Z,13.00
2022-10-05T03:35:33.330Z,13.00
2022-10-05T03:38:18.167Z,13.00
2022-10-05T03:40:54.729Z,13.00
2022-10-05T03:43:54.230Z,13.10
2022-10-05T03:46:33.858Z,13.10
2022-10-05T03:49:17.109Z,13.10
2022-10-05T03:51:51.517Z,13.10
2022-10-05T03:54:32.951Z,13.20
2022-10-05T03:57:26.202Z,13.20
2022-10-05T04:00:02.004Z,13.20
2022-10-05T04:02:40.302Z,13.20
2022-10-05T04:05:17.551Z,13.30
2022-10-05T04:07:58.031Z,13.30
2022-10-05T04:10:32.375Z,13.30
2022-10-05T04:13:13.201Z,13.40
2022-10-05T04:15:46.389Z,13.40
2022-10-05T04:18:33.131Z,13.40
2022-10-05T04:21:07.078Z,13.40
2022-10-05T04:23:50.227Z,13.50
2022-10-05T04:26:27.899Z,13.50
2022-10-05T04:29:05.209Z,13.50
2022-10-05T04:32:03.041Z,13.50
2022-10-05T04:34:49.808Z,13.60
2022-10-05T04:37:30.134Z,13.60
2022-10-05T04:40:15.212Z,13.60
2022-10-05T04:43:00.089Z,13.60
2022-10-05T04:45:38.953Z,13.60
2022-10-05T04:48:28.265Z,13.70
2022-10-05T04:51:08.653Z,13.70
2022-10-05T04:53:52.173Z,13.70
2022-10-05T04:56:47.408Z,13.70
2022-10-05T04:59:57.108Z,13.70
2022-10-05T05:02:36.487Z,13.70
2022-10-05T05:05:58.735Z,13.70
2022-10-05T05:08:56.256Z,13.70
2022-10-05T05:11:30.457Z,13.70
2022-10-05T05:14:29.096Z,13.70
2022-10-05T05:17:13.125Z,13.70
2022-10-05T05:19:59.306Z,13.70
2022-10-05T05:22:36.261Z,13.70
2022-10-05T05:25:40.145Z,13.70
2022-10-05T05:28:20.584Z,13.80
2022-10-05T05:31:05.121Z,13.80
2022-10-05T05:33:43.737Z,13.80
2022-10-05T05:36:48.457Z,13.70
2022-10-05T05:39:27.391Z,13.80
2022-10-05T05:42:27.264Z,13.80
2022-10-05T05:44:59.277Z,13.80
2022-10-05T05:47:42.246Z,13.80
2022-10-05T05:50:28.004Z,13.80
2022-10-05T05:53:07.299Z,13.80
2022-10-05T05:55:40.048Z,13.80
2022-10-05T05:58:28.363Z,13.90
2022-10-05T06:01:02.601Z,13.90
2022-10-05T06:03:45.119Z,13.90
2022-10-05T06:06:17.578Z,13.90
2022-10-05T06:08:56.307Z,13.90
2022-10-05T06:11:28.394Z,13.90
2022-10-05T06:14:06.334Z,13.90
2022-10-05T06:16:40.319Z,14.00
2022-10-05T06:19:21.307Z,14.00
2022-10-05T06:21:55.972Z,14.00
2022-10-05T06:24:35.314Z,14.00
2022-10-05T06:27:21.218Z,14.10
2022-10-05T06:30:11.276Z,14.10
2022-10-05T06:32:57.709Z,14.10
2022-10-05T06:35:49.183Z,14.10
2022-10-05T06:38:34.985Z,14.10
2022-10-05T06:41:20.267Z,14.20
2022-10-05T06:43:58.070Z,14.10
2022-10-05T06:46:37.202Z,14.10
2022-10-05T06:49:17.992Z,14.10
2022-10-05T06:52:02.173Z,14.10
2022-10-05T06:54:47.328Z,14.20
2022-10-05T06:57:44.339Z,14.20
2022-10-05T07:00:28.249Z,14.20
2022-10-05T07:03:05.201Z,14.20
2022-10-05T07:05:56.366Z,14.30
2022-10-05T07:08:39.929Z,14.30
2022-10-05T07:11:26.221Z,14.30
2022-10-05T07:14:15.499Z,14.40
2022-10-05T07:17:02.288Z,14.40
2022-10-05T07:19:38.286Z,14.40
2022-10-05T07:22:40.413Z,14.50
2022-10-05T07:25:16.901Z,14.50
2022-10-05T07:27:58.452Z,14.50
2022-10-05T07:30:26.978Z,14.50
2022-10-05T07:33:07.236Z,14.60
2022-10-05T07:36:03.198Z,14.60
2022-10-05T07:38:41.280Z,14.70
2022-10-05T07:41:16.779Z,14.70
2022-10-05T07:44:02.550Z,14.70
2022-10-05T07:46:42.878Z,14.70
2022-10-05T07:49:24.413Z,14.80
2022-10-05T07:51:58.002Z,14.90
2022-10-05T07:54:38.233Z,14.90
2022-10-05T07:57:25.985Z,15.00
2022-10-05T08:00:11.590Z,15.00
2022-10-05T08:02:44.625Z,15.10
2022-10-05T08:05:26.265Z,15.20
2022-10-05T08:08:02.975Z,15.20
2022-10-05T08:10:44.318Z,15.30
2022-10-05T08:13:21.215Z,15.40
2022-10-05T08:16:00.217Z,15.40
2022-10-05T08:18:43.994Z,15.50
2022-10-05T08:21:23.379Z,15.60
2022-10-05T08:23:56.611Z,15.60
2022-10-05T08:26:42.606Z,15.70
2022-10-05T08:29:21.519Z,15.70
2022-10-05T08:31:59.590Z,15.80
2022-10-05T08:34:31.960Z,15.90
2022-10-05T08:37:11.357Z,16.00
2022-10-05T08:39:42.754Z,16.10
2022-10-05T08:42:58.451Z,16.10
2022-10-05T08:45:57.639Z,16.20
2022-10-05T08:49:00.319Z,16.30
2022-10-05T08:51:50.789Z,16.40
2022-10-05T08:54:51.410Z,16.50
2022-10-05T08:58:02.429Z,16.60
2022-10-05T09:00:56.330Z,16.70
2022-10-05T09:03:56.487Z,16.80
2022-10-05T09:07:02.478Z,16.80
2022-10-05T09:10:17.359Z,16.90
2022-10-05T09:13:25.604Z,16.90
2022-10-05T09:16:20.319Z,17.00
2022-10-05T09:19:03.387Z,17.10
2022-10-05T09:21:48.860Z,17.10
2022-10-05T09:24:28.710Z,17.20
2022-10-05T09:27:16.429Z,17.20
2022-10-05T09:30:18.599Z,17.30
2022-10-05T09:33:17.448Z,17.30
2022-10-05T09:36:36.937Z,17.40
2022-10-05T09:39:34.381Z,17.40
2022-10-05T09:42:38.198Z,17.60
2022-10-05T09:45:40.339Z,17.60
2022-10-05T09:48:52.234Z,17.70
2022-10-05T09:52:02.364Z,17.80
2022-10-05T09:55:15.675Z,18.00
2022-10-05T09:58:12.350Z,18.00
2022-10-05T10:01:03.818Z,18.10
2022-10-05T10:04:31.369Z,18.20
2022-10-05T10:07:51.720Z,18.20
2022-10-05T10:10:45.543Z,18.40
2022-10-05T10:13:49.587Z,18.50
2022-10-05T10:16:41.405Z,18.50
2022-10-05T10:19:57.332Z,18.70
2022-10-05T10:22:55.622Z,19.00
2022-10-05T10:26:13.412Z,19.40
2022-10-05T10:29:21.433Z,19.50
2022-10-05T10:32:16.573Z,19.80
2022-10-05T10:35:01.114Z,20.20
2022-10-05T10:38:09.392Z,20.40
2022-10-05T10:40:43.422Z,20.30
2022-10-05T10:43:46.379Z,20.30
2022-10-05T10:46:29.931Z,20.40
2022-10-05T10:49:13.559Z,20.60
2022-10-05T10:52:05.734Z,20.80
2022-10-05T10:55:00.582Z,20.70
2022-10-05T10:57:45.863Z,20.70
2022-10-05T11:00:36.441Z,20.50
2022-10-05T11:03:47.115Z,20.20
2022-10-05T11:06:32.465Z,19.90
2022-10-05T11:09:21.636Z,19.90
2022-10-05T11:12:33.642Z,20.10
2022-10-05T11:15:30.807Z,20.30
2022-10-05T11:18:18.641Z,20.50
2022-10-05T11:21:30.417Z,20.50
2022-10-05T11:24:51.439Z,20.70
2022-10-05T11:27:51.370Z,20.80
2022-10-05T11:30:50.489Z,20.90
2022-10-05T11:33:54.131Z,21.00
2022-10-05T11:37:16.508Z,21.10
2022-10-05T11:40:14.217Z,21.20
2022-10-05T11:43:29.607Z,21.30
2022-10-05T11:46:06.991Z,21.60
2022-10-05T11:48:58.474Z,21.60
2022-10-05T11:51:40.014Z,21.40
2022-10-05T11:54:29.549Z,21.20
2022-10-05T11:57:11.048Z,21.50
2022-10-05T12:00:01.457Z,21.80
2022-10-05T12:02:59.519Z,21.80
2022-10-05T12:05:44.484Z,21.60
2022-10-05T12:08:25.728Z,21.30
2022-10-05T12:11:10.526Z,21.50
2022-10-05T12:13:48.270Z,21.80
2022-10-05T12:16:30.501Z,21.90
2022-10-05T12:19:11.655Z,21.90
2022-10-05T12:21:46.142Z,22.00
2022-10-05T12:24:28.511Z,22.00
2022-10-05T12:27:01.016Z,22.10
2022-10-05T12:29:43.498Z,22.30
2022-10-05T12:32:17.580Z,22.60
2022-10-05T12:35:04.500Z,22.70
2022-10-05T12:37:43.415Z,22.70
2022-10-05T12:40:36.518Z,22.50
2022-10-05T12:43:12.797Z,22.40
2022-10-05T12:46:16.577Z,22.00
2022-10-05T12:49:15.562Z,21.60
2022-10-05T12:51:48.881Z,21.70
2022-10-05T12:54:31.668Z,21.70
2022-10-05T12:57:10.683Z,21.60
2022-10-05T12:59:50.090Z,21.80
2022-10-05T13:02:37.664Z,22.10
2022-10-05T13:05:21.117Z,22.10
2022-10-05T13:08:15.743Z,22.00
2022-10-05T13:10:57.885Z,21.90
2022-10-05T13:13:48.471Z,21.70
2022-10-05T13:16:35.658Z,21.50
2022-10-05T13:19:27.293Z,21.40
2022-10-05T13:22:20.545Z,21.10
2022-10-05T13:25:00.506Z,21.10
2022-10-05T13:27:39.508Z,21.10
2022-10-05T13:30:15.651Z,20.80
2022-10-05T13:32:54.616Z,20.70
2022-10-05T13:35:37.434Z,20.50
2022-10-05T13:38:23.552Z,20.40
2022-10-05T13:41:00.627Z,20.40
2022-10-05T13:43:45.563Z,20.40
2022-10-05T13:46:24.246Z,20.30
2022-10-05T13:49:07.584Z,20.20
2022-10-05T13:51:46.134Z,20.20
2022-10-05T13:54:27.626Z,20.30
2022-10-05T13:57:02.221Z,20.40
2022-10-05T13:59:49.624Z,20.20
2022-10-05T14:02:23.215Z,20.00
2022-10-05T14:04:59.592Z,19.80
2022-10-05T14:07:35.486Z,19.70
2022-10-05T14:10:11.573Z,19.60
2022-10-05T14:12:43.006Z,19.50
2022-10-05T14:15:30.336Z,19.40
2022-10-05T14:17:58.886Z,19.30
2022-10-05T14:20:35.595Z,19.20
2022-10-05T14:23:18.422Z,19.10
2022-10-05T14:26:04.181Z,19.00
2022-10-05T14:28:34.997Z,18.90
2022-10-05T14:31:19.224Z,18.70
2022-10-05T14:33:48.187Z,18.50
2022-10-05T14:36:39.839Z,18.50
2022-10-05T14:39:14.333Z,18.40
2022-10-05T14:41:56.799Z,18.30
2022-10-05T14:47:25.805Z,18.10
2022-10-05T14:50:14.190Z,18.10
2022-10-05T14:52:52.816Z,18.10
2022-10-05T14:55:55.790Z,18.00
2022-10-05T14:58:49.803Z,18.00
2022-10-05T15:01:24.960Z,18.00
2022-10-05T15:04:09.628Z,18.10
2022-10-05T15:06:40.949Z,18.00
2022-10-05T15:09:43.831Z,18.00
2022-10-05T15:12:26.715Z,18.00
2022-10-05T15:15:10.004Z,18.10
2022-10-05T15:17:44.993Z,18.20
2022-10-05T15:20:27.842Z,18.30
2022-10-05T15:23:06.444Z,18.20
2022-10-05T15:25:46.792Z,18.10
2022-10-05T15:28:24.078Z,18.10
2022-10-05T15:31:09.785Z,18.10
2022-10-05T15:33:46.391Z,18.10
2022-10-05T15:36:24.697Z,18.00
2022-10-05T15:39:03.402Z,18.00
2022-10-05T15:41:59.666Z,18.00
2022-10-05T15:44:55.424Z,18.00
2022-10-05T15:47:45.691Z,18.00
2022-10-05T15:50:21.094Z,17.90
2022-10-05T15:53:03.009Z,18.00
2022-10-05T15:55:42.305Z,18.00
2022-10-05T15:58:45.695Z,18.00
2022-10-05T16:01:30.805Z,18.00
2022-10-05T16:04:05.256Z,18.10
2022-10-05T16:07:03.740Z,18.00
2022-10-05T16:09:44.171Z,18.00
2022-10-05T16:12:26.740Z,18.00
2022-10-05T16:15:16.647Z,18.00
2022-10-05T16:18:33.784Z,18.00
2022-10-05T16:21:10.996Z,18.00
2022-10-05T16:23:54.685Z,18.00
2022-10-05T16:26:34.547Z,18.00
2022-10-05T16:29:16.702Z,18.00
2022-10-05T16:31:54.887Z,18.00
2022-10-05T16:34:38.836Z,18.00
2022-10-05T16:37:17.209Z,17.90
2022-10-05T16:39:59.793Z,17.90
2022-10-05T16:42:43.337Z,17.90
2022-10-05T16:45:45.841Z,17.90
2022-10-05T16:48:22.331Z,17.90
2022-10-05T16:51:10.998Z,17.80
2022-10-05T16:53:44.626Z,17.90
2022-10-05T16:56:24.737Z,17.80
2022-10-05T16:59:22.934Z,17.80
2022-10-05T17:02:08.957Z,17.80
2022-10-05T17:04:46.431Z,17.80
2022-10-05T17:07:47.902Z,17.80
2022-10-05T17:10:37.234Z,17.80
2022-10-05T17:13:27.821Z,17.80
2022-10-05T17:16:04.403Z,17.80
2022-10-05T17:19:12.919Z,17.80
2022-10-05T17:21:47.012Z,17.80
2022-10-05T17:24:36.852Z,17.80
2022-10-05T17:27:20.637Z,17.80
2022-10-05T17:29:58.799Z,17.80
2022-10-05T17:32:39.617Z,17.80
2022-10-05T17:35:26.939Z,17.80
2022-10-05T17:38:14.690Z,17.80
2022-10-05T17:41:12.968Z,17.80
2022-10-05T17:44:03.363Z,17.80
2022-10-05T17:46:51.848Z,17.80
2022-10-05T17:50:09.772Z,17.80
2022-10-05T17:53:02.670Z,17.70
2022-10-05T17:55:44.163Z,17.70
2022-10-05T17:59:07.874Z,17.70
2022-10-05T18:01:44.976Z,17.70
2022-10-05T18:04:45.842Z,17.70
2022-10-05T18:07:23.757Z,17.70
2022-10-05T18:10:06.868Z,17.70
2022-10-05T18:12:46.061Z,17.80
2022-10-05T18:15:52.832Z,17.80
2022-10-05T18:18:57.449Z,17.70
2022-10-05T18:21:44.979Z,17.70
2022-10-05T18:24:26.083Z,17.80
2022-10-05T18:27:12.829Z,17.80
2022-10-05T18:30:05.473Z,17.80
2022-10-05T18:32:58.014Z,17.80
2022-10-05T18:35:37.050Z,17.80
2022-10-05T18:38:19.903Z,17.80
2022-10-05T18:40:57.617Z,17.80
2022-10-05T18:43:42.863Z,17.80
2022-10-05T18:46:22.792Z,17.80
2022-10-05T18:49:09.919Z,17.90
2022-10-05T18:51:51.672Z,17.90
2022-10-05T18:54:39.900Z,17.90
2022-10-05T18:57:54.367Z,17.90
2022-10-05T19:00:47.917Z,17.90
2022-10-05T19:03:27.105Z,17.90
2022-10-05T19:06:13.059Z,17.90
2022-10-05T19:08:52.152Z,17.90
2022-10-05T19:11:33.849Z,17.90
2022-10-05T19:14:12.160Z,17.90
2022-10-05T19:17:13.932Z,18.00
2022-10-05T19:19:58.113Z,17.90
2022-10-05T19:22:46.924Z,17.90
2022-10-05T19:25:30.184Z,17.90
2022-10-05T19:28:18.027Z,17.90
2022-10-05T19:31:00.733Z,17.90
2022-10-05T19:33:46.071Z,17.90
2022-10-05T19:36:39.706Z,17.90
2022-10-05T19:39:19.952Z,17.90
2022-10-05T19:42:15.509Z,17.90
2022-10-05T19:45:03.109Z,17.90
2022-10-05T19:47:41.351Z,17.80
2022-10-05T19:50:32.949Z,17.80
2022-10-05T19:53:14.223Z,17.80
2022-10-05T19:55:51.951Z,17.80
2022-10-05T19:58:33.308Z,17.80
2022-10-05T20:01:15.061Z,17.60
2022-10-05T20:03:49.393Z,17.00
2022-10-05T20:06:27.112Z,16.70
2022-10-05T20:09:00.230Z,16.30
2022-10-05T20:11:37.942Z,16.10
2022-10-05T20:14:22.453Z,16.00
2022-10-05T20:18:02.087Z,15.90
2022-10-05T20:20:48.652Z,15.90
2022-10-05T20:23:26.478Z,15.80
2022-10-05T20:26:27.109Z,15.80
2022-10-05T20:28:55.525Z,15.80
2022-10-05T20:31:31.981Z,15.80
2022-10-05T20:34:01.384Z,15.80
2022-10-05T20:36:36.022Z,15.80
2022-10-05T20:39:04.556Z,15.90
2022-10-05T20:41:38.973Z,15.90
2022-10-05T20:44:07.412Z,15.90
2022-10-05T20:46:44.055Z,15.90
2022-10-05T20:49:12.702Z,15.90
2022-10-05T20:51:48.119Z,15.90
2022-10-05T20:54:19.158Z,15.90
2022-10-05T20:56:53.974Z,16.00
2022-10-05T20:59:29.480Z,15.90
2022-10-05T21:02:11.962Z,16.00
2022-10-05T21:04:41.708Z,16.00
2022-10-05T21:07:18.144Z,16.00
2022-10-05T21:09:46.857Z,16.00
2022-10-05T21:12:23.179Z,16.00
2022-10-05T21:14:52.769Z,16.00
2022-10-05T21:17:28.985Z,16.10
2022-10-05T21:19:57.347Z,16.10
2022-10-05T21:22:32.087Z,16.10
2022-10-05T21:25:00.510Z,16.10
2022-10-05T21:27:34.948Z,16.00
2022-10-05T21:30:03.288Z,16.00
2022-10-05T21:32:44.244Z,16.00
2022-10-05T21:35:14.009Z,15.90
2022-10-05T21:37:49.016Z,15.90
2022-10-05T21:40:17.613Z,15.90
2022-10-05T21:42:52.157Z,15.80
2022-10-05T21:45:20.712Z,15.80
2022-10-05T21:47:56.965Z,15.80
2022-10-05T21:50:25.569Z,15.80
2022-10-05T21:53:01.026Z,15.70
2022-10-05T21:55:29.828Z,15.60
2022-10-05T21:58:06.208Z,15.60
2022-10-05T22:00:41.981Z,15.60
2022-10-05T22:03:18.185Z,15.60
2022-10-05T22:05:46.813Z,15.60
2022-10-05T22:08:31.267Z,15.60
2022-10-05T22:11:01.443Z,15.60
2022-10-05T22:13:50.113Z,15.60
2022-10-05T22:16:21.279Z,15.60
2022-10-05T22:19:00.222Z,15.60
2022-10-05T22:21:28.680Z,15.50
2022-10-05T22:24:03.241Z,15.50
2022-10-05T22:26:31.994Z,15.50
2022-10-05T22:29:08.230Z,15.40
2022-10-05T22:31:36.835Z,15.40
2022-10-05T22:34:13.164Z,15.40
2022-10-05T22:36:41.930Z,15.40
2022-10-05T22:39:17.244Z,15.40
2022-10-05T22:41:45.956Z,15.30
2022-10-05T22:44:21.255Z,15.30
2022-10-05T22:46:50.339Z,15.20
2022-10-05T22:49:27.115Z,15.20
2022-10-05T22:51:56.054Z,15.10
2022-10-05T22:54:35.364Z,15.00
2022-10-05T22:57:05.684Z,15.00
2022-10-05T22:59:40.069Z,15.00
2022-10-05T23:02:15.419Z,14.90
2022-10-05T23:04:52.244Z,14.90
2022-10-05T23:07:21.296Z,14.90
2022-10-05T23:09:56.252Z,14.90
2022-10-05T23:12:24.711Z,14.80
2022-10-05T23:15:00.292Z,14.80
2022-10-05T23:17:28.717Z,14.80
2022-10-05T23:20:05.292Z,14.70
2022-10-05T23:22:37.222Z,14.70
2022-10-05T23:25:13.262Z,14.70
2022-10-05T23:27:43.258Z,14.60
2022-10-05T23:30:20.178Z,14.60
2022-10-05T23:32:48.550Z,14.50
2022-10-05T23:35:25.105Z,14.60
2022-10-05T23:37:53.515Z,14.50
2022-10-05T23:40:28.276Z,14.40
2022-10-05T23:42:56.753Z,14.40
2022-10-05T23:45:31.108Z,14.40
2022-10-05T23:47:59.535Z,14.30
2022-10-05T23:50:36.156Z,14.30
2022-10-05T23:53:04.869Z,14.30
2022-10-05T23:55:40.178Z,14.30
2022-10-05T23:58:08.608Z,14.20
